Time;durP1;ratioP1;P1;durP2;ratioP2;P2;SDS_P1;SDS_P2;PMS_P1;PMS_P2;Temp;Humidity;BMP_temperature;BMP_pressure;BME280_temperature;BME280_humidity;BME280_pressure;Samples;Min_cycle;Max_cycle;Signal;HPM_P1;HPM_P2
2023/10/18 00:02:49;;;;;;;9.10;6.47;;;15.40;99.90;;;;;;4918296;29;20032;-90
2023/10/18 00:05:18;;;;;;;7.82;6.20;;;15.40;99.90;;;;;;4902465;29;20084;-91
2023/10/18 00:07:45;;;;;;;8.73;6.10;;;15.40;99.90;;;;;;4902774;29;20042;-89
2023/10/18 00:10:12;;;;;;;7.82;6.45;;;15.40;99.90;;;;;;4902505;29;20051;-87
2023/10/18 00:12:39;;;;;;;6.57;5.82;;;15.50;99.90;;;;;;4903231;29;20028;-91
2023/10/18 00:15:07;;;;;;;7.95;6.32;;;15.40;99.90;;;;;;4902682;29;20071;-90
2023/10/18 00:17:34;;;;;;;8.98;5.95;;;15.40;99.90;;;;;;4902601;29;20032;-89
2023/10/18 00:20:00;;;;;;;9.95;6.32;;;15.40;99.90;;;;;;4903682;29;20032;-89
2023/10/18 00:22:26;;;;;;;11.20;6.50;;;15.40;99.90;;;;;;4920822;29;20039;-89
2023/10/18 00:24:53;;;;;;;6.72;6.05;;;15.40;99.90;;;;;;4905230;29;20028;-90
2023/10/18 00:27:19;;;;;;;11.48;6.18;;;15.30;99.90;;;;;;4905167;29;20039;-89
2023/10/18 00:29:47;;;;;;;6.82;6.05;;;15.30;99.90;;;;;;4905064;29;20079;-92
2023/10/18 00:32:16;;;;;;;8.82;5.90;;;15.30;99.90;;;;;;4905113;29;20028;-90
2023/10/18 00:34:42;;;;;;;9.25;5.88;;;15.30;99.90;;;;;;4904859;29;20039;-88
2023/10/18 00:37:09;;;;;;;8.25;6.05;;;15.30;99.90;;;;;;4904983;29;20490;-88
2023/10/18 00:39:35;;;;;;;9.27;6.07;;;15.20;99.90;;;;;;4904976;29;20038;-88
2023/10/18 00:45:14;;;;;;;8.70;6.10;;;15.20;99.90;;;;;;4863937;29;20119;-90
2023/10/18 00:47:40;;;;;;;10.05;6.63;;;15.10;99.90;;;;;;4863839;29;20041;-90
2023/10/18 00:50:07;;;;;;;8.15;6.05;;;15.10;99.90;;;;;;4848650;29;20123;-91
2023/10/18 00:52:35;;;;;;;9.77;6.78;;;15.00;99.90;;;;;;4848382;29;20047;-89
2023/10/18 00:55:01;;;;;;;8.75;6.45;;;15.00;99.90;;;;;;4848319;29;20043;-90
2023/10/18 00:57:34;;;;;;;8.70;6.68;;;14.90;99.90;;;;;;4863320;29;20025;-88
2023/10/18 01:00:12;;;;;;;11.90;7.20;;;15.00;99.90;;;;;;4863608;29;20392;-89
2023/10/18 01:02:43;;;;;;;13.80;7.25;;;14.90;99.90;;;;;;4848703;29;20116;-90
2023/10/18 01:05:15;;;;;;;9.95;7.40;;;14.90;99.90;;;;;;4848463;29;20395;-91
2023/10/18 01:07:52;;;;;;;10.05;7.50;;;14.90;99.90;;;;;;4863408;29;20120;-91
2023/10/18 01:10:23;;;;;;;13.65;7.50;;;14.90;99.90;;;;;;4848427;29;20442;-89
2023/10/18 01:12:54;;;;;;;12.15;7.30;;;14.90;99.90;;;;;;4863385;29;20076;-89
2023/10/18 01:15:23;;;;;;;13.23;7.95;;;14.90;99.90;;;;;;4871079;29;20045;-88
2023/10/18 01:17:49;;;;;;;8.60;7.03;;;14.80;99.90;;;;;;4857828;29;20567;-89
2023/10/18 01:22:58;;;;;;;10.80;7.35;;;14.70;99.90;;;;;;4935958;29;20035;-91
2023/10/18 01:25:25;;;;;;;10.82;7.80;;;14.70;99.90;;;;;;4920442;29;20024;-88
2023/10/18 01:27:51;;;;;;;13.77;7.80;;;14.70;99.90;;;;;;4935840;29;20024;-90
2023/10/18 01:30:21;;;;;;;13.75;8.23;;;14.70;99.90;;;;;;4920184;29;20031;-89
2023/10/18 01:32:48;;;;;;;13.23;8.00;;;14.60;99.90;;;;;;4920101;29;20024;-91
2023/10/18 01:35:17;;;;;;;13.52;8.00;;;14.60;99.90;;;;;;4920271;29;20036;-89
2023/10/18 01:37:49;;;;;;;11.32;7.60;;;14.60;99.90;;;;;;4935950;29;20043;-90
2023/10/18 01:40:32;;;;;;;11.07;7.47;;;14.60;99.90;;;;;;4920143;29;20760;-89
2023/10/18 01:43:00;;;;;;;12.20;7.77;;;14.60;99.90;;;;;;4935913;29;20032;-88
2023/10/18 01:45:30;;;;;;;13.15;7.40;;;14.60;99.90;;;;;;4920363;29;20028;-90
2023/10/18 01:47:57;;;;;;;14.27;7.75;;;14.60;99.90;;;;;;4936246;29;20044;-88
2023/10/18 01:50:26;;;;;;;10.45;7.25;;;14.60;99.90;;;;;;4919973;29;20024;-91
2023/10/18 01:52:53;;;;;;;10.52;8.00;;;14.60;99.90;;;;;;4935649;29;20043;-89
2023/10/18 01:55:19;;;;;;;11.38;7.28;;;14.60;99.90;;;;;;4919670;29;20036;-88
2023/10/18 01:57:46;;;;;;;10.50;7.22;;;14.60;99.90;;;;;;4919688;29;20034;-88
2023/10/18 02:00:21;;;;;;;9.60;7.30;;;14.60;99.90;;;;;;4920002;29;20023;-89
2023/10/18 02:02:48;;;;;;;9.25;6.65;;;14.60;99.90;;;;;;4935589;29;20477;-89
2023/10/18 02:05:17;;;;;;;11.10;7.85;;;14.60;99.90;;;;;;4919800;29;20032;-88
2023/10/18 02:07:50;;;;;;;9.32;6.97;;;14.60;99.90;;;;;;4921516;29;20103;-88
2023/10/18 02:10:23;;;;;;;10.07;7.53;;;14.60;99.90;;;;;;4939597;29;20042;-90
2023/10/18 02:12:52;;;;;;;11.07;6.90;;;14.60;99.90;;;;;;4923559;29;20055;-89
2023/10/18 02:15:20;;;;;;;9.02;6.80;;;14.60;99.90;;;;;;4923334;29;20165;-88
2023/10/18 02:17:53;;;;;;;10.98;7.25;;;14.60;99.90;;;;;;4939021;29;20036;-88
2023/10/18 02:20:27;;;;;;;9.05;6.95;;;14.60;99.90;;;;;;4923157;29;20044;-89
2023/10/18 02:23:01;;;;;;;10.20;6.93;;;14.60;99.90;;;;;;4939064;29;20035;-89
2023/10/18 02:25:44;;;;;;;11.95;7.78;;;14.60;99.90;;;;;;4920150;29;20090;-89
2023/10/18 02:28:32;;;;;;;12.30;8.15;;;14.70;99.90;;;;;;4907027;29;20036;-90
2023/10/18 02:31:12;;;;;;;11.75;7.10;;;14.70;99.90;;;;;;4919646;29;20079;-89
2023/10/18 02:33:42;;;;;;;10.20;7.70;;;14.60;99.90;;;;;;4938611;29;20046;-90
2023/10/18 02:36:12;;;;;;;11.00;7.20;;;14.60;99.90;;;;;;4922722;29;20508;-89
2023/10/18 02:38:41;;;;;;;12.48;7.53;;;14.60;99.90;;;;;;4928200;29;20042;-89
2023/10/18 02:41:21;;;;;;;10.00;7.78;;;14.60;99.90;;;;;;4932714;29;20032;-89
2023/10/18 02:43:52;;;;;;;9.80;6.97;;;14.60;99.90;;;;;;4930659;29;20031;-88
2023/10/18 02:46:24;;;;;;;9.55;6.60;;;14.60;99.90;;;;;;4931093;29;20027;-89
2023/10/18 02:48:54;;;;;;;11.95;7.43;;;14.60;99.90;;;;;;4931454;29;20390;-90
2023/10/18 02:51:25;;;;;;;10.15;7.60;;;14.60;99.90;;;;;;4929380;29;20028;-90
2023/10/18 02:53:53;;;;;;;10.20;6.72;;;14.50;99.90;;;;;;4922841;29;20059;-88
2023/10/18 02:56:27;;;;;;;13.93;7.53;;;14.50;99.90;;;;;;4923451;29;20193;-89
2023/10/18 02:58:58;;;;;;;10.68;7.85;;;14.40;99.90;;;;;;4923344;29;20031;-89
2023/10/18 03:01:26;;;;;;;11.25;7.28;;;14.40;99.90;;;;;;4923020;29;20032;-88
2023/10/18 03:03:56;;;;;;;12.57;7.93;;;14.40;99.90;;;;;;4922393;29;20031;-89
2023/10/18 03:06:28;;;;;;;10.93;7.78;;;14.40;99.90;;;;;;4922546;29;20055;-89
2023/10/18 03:08:58;;;;;;;9.18;7.00;;;14.30;99.90;;;;;;4922287;29;20035;-88
2023/10/18 03:11:25;;;;;;;10.30;7.57;;;14.40;99.90;;;;;;4922499;29;20028;-88
2023/10/18 03:13:52;;;;;;;12.40;7.32;;;14.40;99.90;;;;;;4921550;29;20516;-89
2023/10/18 03:16:38;;;;;;;8.90;7.25;;;14.40;99.90;;;;;;4922973;29;20035;-89
2023/10/18 03:19:12;;;;;;;8.38;6.93;;;14.30;99.90;;;;;;4937667;29;20101;-90
2023/10/18 03:21:41;;;;;;;9.65;7.07;;;14.40;99.90;;;;;;4922048;29;20058;-90
2023/10/18 03:24:09;;;;;;;12.90;8.20;;;14.40;99.90;;;;;;4924044;29;20057;-88
2023/10/18 03:26:36;;;;;;;12.63;7.40;;;14.30;99.90;;;;;;4922886;29;20098;-89
2023/10/18 03:29:16;;;;;;;11.77;7.38;;;14.30;99.90;;;;;;4923506;29;20036;-91
2023/10/18 03:31:44;;;;;;;11.07;7.40;;;14.30;99.90;;;;;;4921810;29;20031;-88
2023/10/18 03:34:22;;;;;;;9.27;7.07;;;14.30;99.90;;;;;;4921667;29;20044;-86
2023/10/18 03:36:49;;;;;;;10.80;7.70;;;14.30;99.90;;;;;;4921650;29;20393;-89
2023/10/18 03:39:25;;;;;;;10.18;7.20;;;14.30;99.90;;;;;;4921763;29;20038;-86
2023/10/18 03:41:58;;;;;;;13.75;7.53;;;14.20;99.90;;;;;;4921933;29;20171;-88
2023/10/18 03:44:28;;;;;;;10.65;7.72;;;14.20;99.90;;;;;;4921622;29;20035;-87
2023/10/18 03:47:05;;;;;;;9.88;7.47;;;14.20;99.90;;;;;;4921883;29;20039;-89
2023/10/18 03:49:39;;;;;;;;;;;14.20;99.90;;;;;;4921698;29;20036;-87
2023/10/18 03:57:39;;;;;;;8.70;7.05;;;14.20;99.90;;;;;;4936899;29;20032;-88
2023/10/18 04:00:54;;;;;;;10.00;7.22;;;14.20;99.90;;;;;;4921453;29;20086;-89
2023/10/18 04:03:00;;;;;;;9.90;7.03;;;14.20;99.90;;;;;;4926890;29;20035;-88
2023/10/18 04:05:44;;;;;;;9.15;6.93;;;14.10;99.90;;;;;;4921343;29;20066;-87
2023/10/18 04:08:14;;;;;;;11.88;6.68;;;14.20;99.90;;;;;;4921540;29;20027;-88
2023/10/18 04:10:41;;;;;;;10.02;7.10;;;14.20;99.90;;;;;;4921365;29;20031;-88
2023/10/18 04:13:14;;;;;;;9.13;7.15;;;14.10;99.90;;;;;;4921066;29;20056;-87
2023/10/18 04:15:59;;;;;;;14.70;7.57;;;14.10;99.90;;;;;;4920865;29;20035;-90
2023/10/18 04:18:29;;;;;;;8.25;6.55;;;14.10;99.90;;;;;;4921276;29;20032;-87
2023/10/18 04:20:59;;;;;;;11.55;7.57;;;14.10;99.90;;;;;;4920431;29;20060;-88
2023/10/18 04:23:26;;;;;;;9.73;7.55;;;14.00;99.90;;;;;;4921026;29;20141;-87
2023/10/18 04:25:57;;;;;;;9.32;7.43;;;14.00;99.90;;;;;;4921017;29;20035;-86
2023/10/18 04:28:37;;;;;;;8.85;7.28;;;14.10;99.90;;;;;;4921092;29;20027;-91
2023/10/18 04:31:11;;;;;;;10.15;7.88;;;14.00;99.90;;;;;;4921536;29;20031;-91
2023/10/18 04:34:05;;;;;;;13.73;8.00;;;14.00;99.90;;;;;;4929303;29;20067;-91
2023/10/18 04:36:33;;;;;;;9.80;7.22;;;14.00;99.90;;;;;;4960937;29;20035;-91
2023/10/18 04:39:11;;;;;;;9.93;7.60;;;14.00;99.90;;;;;;4949246;29;20027;-91
2023/10/18 04:41:45;;;;;;;10.40;7.47;;;14.00;99.90;;;;;;4951162;29;20031;-91
2023/10/18 04:44:20;;;;;;;13.63;7.57;;;13.90;99.90;;;;;;4945238;29;20166;-91
2023/10/18 04:46:52;;;;;;;10.02;7.18;;;13.90;99.90;;;;;;4941986;29;20043;-91
2023/10/18 04:49:38;;;;;;;11.52;7.43;;;13.90;99.90;;;;;;4943293;29;20031;-91
2023/10/18 04:52:07;;;;;;;11.32;8.60;;;13.90;99.90;;;;;;4947410;29;20035;-91
2023/10/18 04:57:11;;;;;;;10.80;8.07;;;13.90;99.90;;;;;;4964077;29;20031;-91
2023/10/18 04:59:59;;;;;;;;;;;13.90;99.90;;;;;;4948160;29;20039;-91
2023/10/18 05:02:29;;;;;;;11.48;7.07;;;13.80;99.90;;;;;;4941971;29;19918;-93
2023/10/18 05:04:57;;;;;;;11.32;7.47;;;13.80;99.90;;;;;;4941487;29;20138;-87
2023/10/18 05:07:42;;;;;;;11.63;7.80;;;13.80;99.90;;;;;;4939826;29;20031;-89
2023/10/18 05:10:19;;;;;;;;;;;13.90;99.90;;;;;;4939689;29;20051;-86
2023/10/18 05:13:01;;;;;;;12.40;7.65;;;13.90;99.90;;;;;;4939299;29;19910;-86
2023/10/18 05:15:32;;;;;;;15.32;8.85;;;14.00;99.90;;;;;;4941403;29;20050;-89
2023/10/18 05:18:05;;;;;;;11.25;8.02;;;13.90;99.90;;;;;;4939601;29;20054;-90
2023/10/18 05:20:47;;;;;;;9.77;7.03;;;14.00;99.90;;;;;;4939388;29;20054;-82
2023/10/18 05:23:22;;;;;;;13.10;7.68;;;14.00;99.90;;;;;;4941041;29;20434;-82
2023/10/18 05:26:08;;;;;;;13.55;7.93;;;14.00;99.90;;;;;;4934902;29;20035;-85
2023/10/18 05:28:47;;;;;;;15.02;7.95;;;14.00;99.90;;;;;;4935583;29;20036;-85
2023/10/18 05:36:54;;;;;;;9.20;6.80;;;14.10;99.90;;;;;;4950648;29;20028;-82
2023/10/18 05:42:00;;;;;;;10.85;7.60;;;14.30;99.90;;;;;;4935923;29;20030;-81
2023/10/18 05:44:30;;;;;;;11.48;7.53;;;14.30;99.90;;;;;;4938559;29;20031;-77
2023/10/18 05:46:57;;;;;;;9.45;6.95;;;14.40;99.90;;;;;;4956731;29;20031;-78
2023/10/18 05:49:23;;;;;;;10.82;7.60;;;14.50;99.90;;;;;;4958546;28;20027;-79
2023/10/18 05:51:53;;;;;;;11.10;7.32;;;14.60;99.90;;;;;;4957150;29;20027;-80
2023/10/18 05:54:24;;;;;;;11.15;7.10;;;14.80;99.90;;;;;;4937821;29;20044;-79
2023/10/18 05:56:53;;;;;;;7.45;6.75;;;15.30;99.90;;;;;;4949212;29;20070;-80
2023/10/18 06:01:54;;;;;;;11.98;10.98;;;16.40;99.90;;;;;;4958856;29;20036;-90
2023/10/18 06:04:26;;;;;;;14.07;12.98;;;16.80;99.90;;;;;;4942373;29;20031;-89
2023/10/18 06:07:13;;;;;;;15.65;14.55;;;17.20;99.90;;;;;;4958347;29;20140;-89
2023/10/18 06:09:58;;;;;;;17.10;15.90;;;17.50;99.90;;;;;;4942160;29;20031;-89
2023/10/18 06:12:30;;;;;;;18.77;17.50;;;17.70;99.90;;;;;;4942311;29;20460;-88
2023/10/18 06:15:11;;;;;;;20.63;18.67;;;18.00;99.90;;;;;;4924367;29;20036;-89
2023/10/18 06:20:44;;;;;;;22.55;20.92;;;18.70;99.90;;;;;;4938871;29;20036;-88
2023/10/18 06:23:28;;;;;;;25.08;23.25;;;18.90;99.90;;;;;;4935233;29;20067;-90
2023/10/18 06:25:57;;;;;;;22.63;21.08;;;19.10;99.90;;;;;;4922922;29;20054;-88
2023/10/18 06:28:26;;;;;;;24.20;22.08;;;19.10;99.90;;;;;;4923233;29;20028;-88
2023/10/18 06:30:53;;;;;;;23.05;21.30;;;19.40;99.90;;;;;;4922840;29;20060;-89
2023/10/18 06:33:21;;;;;;;23.42;21.73;;;19.40;99.90;;;;;;4910335;29;20035;-88
2023/10/18 06:35:51;;;;;;;23.40;21.70;;;19.10;99.90;;;;;;4903844;29;20119;-89
2023/10/18 06:38:25;;;;;;;24.00;22.23;;;19.10;99.90;;;;;;4933687;29;20086;-88
2023/10/18 06:40:59;;;;;;;24.50;22.65;;;19.50;99.90;;;;;;4920063;29;20389;-88
2023/10/18 06:43:30;;;;;;;24.40;22.60;;;19.70;99.90;;;;;;4922453;29;20035;-90
2023/10/18 06:46:04;;;;;;;24.50;22.70;;;19.90;99.90;;;;;;4923805;29;20031;-90
2023/10/18 06:48:44;;;;;;;25.88;23.38;;;20.30;99.90;;;;;;4923495;29;20044;-91
2023/10/18 06:51:26;;;;;;;25.65;23.63;;;20.10;99.90;;;;;;4924670;29;20028;-89
2023/10/18 06:54:03;;;;;;;25.92;23.80;;;20.10;99.90;;;;;;4922356;29;20130;-87
2023/10/18 06:56:39;;;;;;;25.77;23.65;;;20.30;99.90;;;;;;4922302;29;20111;-87
2023/10/18 06:59:09;;;;;;;24.90;23.15;;;20.30;99.90;;;;;;4922698;29;20032;-88
2023/10/18 07:01:53;;;;;;;25.90;23.77;;;20.40;99.90;;;;;;4922416;29;20047;-88
2023/10/18 07:04:27;;;;;;;25.65;23.48;;;20.40;99.90;;;;;;4903787;29;20039;-89
2023/10/18 07:06:54;;;;;;;;;;;20.80;99.90;;;;;;4903818;29;20111;-88
2023/10/18 07:09:26;;;;;;;26.40;24.30;;;21.30;99.90;;;;;;4951276;29;19932;-89
2023/10/18 07:12:17;;;;;;;25.20;23.27;;;21.60;99.90;;;;;;4903627;29;20064;-89
2023/10/18 07:14:44;;;;;;;26.38;23.98;;;21.60;99.90;;;;;;4903486;29;20047;-89
2023/10/18 07:17:10;;;;;;;25.38;23.10;;;22.00;99.90;;;;;;4903374;29;20039;-89
2023/10/18 07:22:18;;;;;;;24.95;23.25;;;22.10;99.90;;;;;;4919886;29;20043;-89
2023/10/18 07:24:54;;;;;;;25.65;23.65;;;22.30;99.90;;;;;;4904214;29;20036;-92
2023/10/18 07:27:23;;;;;;;26.27;24.17;;;22.40;99.90;;;;;;4903350;29;20032;-93
2023/10/18 07:29:50;;;;;;;26.90;25.00;;;22.50;99.90;;;;;;4903473;29;20024;-93
2023/10/18 07:32:20;;;;;;;27.20;25.30;;;22.50;99.90;;;;;;4906231;29;20077;-87
2023/10/18 07:34:54;;;;;;;28.20;26.20;;;22.70;99.90;;;;;;4921574;29;20059;-89
2023/10/18 07:40:10;;;;;;;27.35;25.20;;;22.80;99.90;;;;;;4956314;29;20043;-88
2023/10/18 07:42:43;;;;;;;27.02;25.13;;;22.90;99.90;;;;;;4940457;29;20132;-87
2023/10/18 07:45:21;;;;;;;26.08;24.38;;;22.80;99.90;;;;;;4940219;29;20031;-90
2023/10/18 07:47:55;;;;;;;25.73;23.77;;;23.00;99.90;;;;;;4940593;29;20035;-88
2023/10/18 07:53:07;;;;;;;25.17;23.38;;;22.60;99.90;;;;;;4956488;29;20055;-87
2023/10/18 07:55:42;;;;;;;24.85;23.05;;;22.20;99.90;;;;;;4940424;29;20050;-91
2023/10/18 07:58:18;;;;;;;25.08;23.17;;;22.20;99.90;;;;;;4940620;29;20037;-91
2023/10/18 08:03:31;;;;;;;24.92;23.25;;;22.50;99.90;;;;;;4943766;29;20042;-91
2023/10/18 08:06:06;;;;;;;25.02;23.33;;;22.20;99.90;;;;;;4922383;29;20457;-92
2023/10/18 08:08:35;;;;;;;25.27;23.27;;;22.50;99.90;;;;;;4939932;29;20122;-88
2023/10/18 08:11:05;;;;;;;24.90;23.05;;;22.60;99.90;;;;;;4939993;29;20043;-88
2023/10/18 08:13:43;;;;;;;25.58;23.77;;;22.70;99.90;;;;;;4940056;29;20082;-88
2023/10/18 08:16:10;;;;;;;24.83;23.08;;;22.40;99.90;;;;;;4939763;29;20071;-86
2023/10/18 08:18:42;;;;;;;24.67;22.98;;;22.50;99.90;;;;;;4939680;29;20035;-87
2023/10/18 08:23:55;;;;;;;24.88;23.27;;;22.50;99.90;;;;;;4940590;29;20028;-89
2023/10/18 08:26:26;;;;;;;25.20;23.50;;;22.60;99.90;;;;;;4921006;29;20035;-88
2023/10/18 08:28:55;;;;;;;24.90;23.20;;;22.70;99.90;;;;;;4933610;29;20048;-89
2023/10/18 08:31:35;;;;;;;25.27;23.38;;;22.30;99.90;;;;;;4939887;29;20027;-89
2023/10/18 08:34:05;;;;;;;24.92;23.05;;;22.40;99.90;;;;;;4940123;29;20109;-90
2023/10/18 08:36:35;;;;;;;24.50;22.58;;;22.40;99.90;;;;;;4939758;29;20031;-89
2023/10/18 08:39:02;;;;;;;24.25;22.75;;;22.10;99.90;;;;;;4940069;29;20036;-87
2023/10/18 08:41:44;;;;;;;24.20;22.60;;;22.30;99.90;;;;;;4939622;29;20031;-85
2023/10/18 08:44:16;;;;;;;24.40;22.90;;;22.30;99.90;;;;;;4935497;29;20069;-88
2023/10/18 08:46:52;;;;;;;24.25;22.50;;;22.30;99.90;;;;;;4939235;29;20110;-90
2023/10/18 08:49:23;;;;;;;24.38;22.83;;;22.10;99.90;;;;;;4930079;29;20043;-91
2023/10/18 08:52:06;;;;;;;25.08;23.38;;;21.90;99.90;;;;;;4901848;29;20494;-91
2023/10/18 08:54:39;;;;;;;24.65;23.10;;;22.00;99.90;;;;;;4902149;29;20486;-89
2023/10/18 08:57:11;;;;;;;25.57;23.73;;;22.40;99.90;;;;;;4928399;29;20074;-89
2023/10/18 08:59:51;;;;;;;25.10;23.25;;;22.40;99.90;;;;;;4939320;29;20042;-90
2023/10/18 09:02:21;;;;;;;25.23;23.48;;;22.40;99.90;;;;;;4924506;29;20114;-89
2023/10/18 09:04:52;;;;;;;25.30;23.60;;;22.40;99.90;;;;;;4902045;29;20032;-86
2023/10/18 09:07:22;;;;;;;24.95;23.35;;;22.20;99.90;;;;;;4901489;29;20036;-90
2023/10/18 09:09:57;;;;;;;24.63;22.92;;;22.30;99.90;;;;;;4901393;29;20046;-90
2023/10/18 09:17:56;;;;;;;25.52;23.83;;;22.90;99.90;;;;;;4917065;29;20331;-89
2023/10/18 09:20:27;;;;;;;25.35;23.65;;;22.50;99.90;;;;;;4903079;29;20108;-91
2023/10/18 09:22:54;;;;;;;25.50;23.42;;;22.20;99.90;;;;;;4902777;29;20075;-90
2023/10/18 09:25:24;;;;;;;24.67;23.05;;;22.20;99.90;;;;;;4902666;29;20028;-90
2023/10/18 09:27:52;;;;;;;25.60;23.80;;;22.30;99.90;;;;;;4904327;29;20032;-88
2023/10/18 09:30:18;;;;;;;25.60;23.90;;;22.30;99.90;;;;;;4902098;29;20464;-88
2023/10/18 09:32:46;;;;;;;26.15;24.20;;;22.40;99.90;;;;;;4901189;29;20379;-89
2023/10/18 09:35:13;;;;;;;25.90;24.17;;;22.50;99.90;;;;;;4900976;29;20043;-90
2023/10/18 09:37:40;;;;;;;25.88;24.08;;;22.30;99.90;;;;;;4900957;29;20111;-89
2023/10/18 09:40:07;;;;;;;26.95;24.90;;;22.50;99.90;;;;;;4901150;29;20055;-90
2023/10/18 09:42:37;;;;;;;25.55;23.65;;;22.80;99.90;;;;;;4904564;29;20035;-88
2023/10/18 09:45:03;;;;;;;26.25;24.55;;;22.60;99.90;;;;;;4921603;29;20394;-89
2023/10/18 09:47:30;;;;;;;25.98;23.92;;;22.30;99.90;;;;;;4939035;29;20501;-90
2023/10/18 09:50:05;;;;;;;25.00;23.40;;;22.50;99.90;;;;;;4938990;29;20408;-90
2023/10/18 09:52:47;;;;;;;25.90;24.10;;;22.70;99.90;;;;;;4938852;29;20457;-88
2023/10/18 09:55:24;;;;;;;25.80;23.90;;;22.70;99.90;;;;;;4953033;29;20031;-89
2023/10/18 09:58:04;;;;;;;25.90;24.15;;;22.50;99.90;;;;;;4938866;29;20023;-88
2023/10/18 10:00:42;;;;;;;26.35;24.42;;;22.60;99.90;;;;;;4939106;29;20038;-88
2023/10/18 10:03:10;;;;;;;25.50;23.60;;;22.80;99.90;;;;;;4939082;29;20311;-88
2023/10/18 10:05:43;;;;;;;25.15;23.45;;;22.70;99.90;;;;;;4929988;29;20496;-80
2023/10/18 10:08:10;;;;;;;25.80;24.00;;;22.80;99.90;;;;;;4916453;29;20406;-80
2023/10/18 10:10:44;;;;;;;25.40;23.50;;;22.60;99.90;;;;;;4931072;29;20426;-80
2023/10/18 10:13:18;;;;;;;25.38;23.73;;;22.80;99.90;;;;;;4924050;29;20024;-80
2023/10/18 10:16:02;;;;;;;25.48;23.77;;;22.90;99.90;;;;;;4940679;29;20132;-80
2023/10/18 10:18:33;;;;;;;25.77;23.98;;;23.00;99.90;;;;;;4954063;28;20071;-80
2023/10/18 10:21:05;;;;;;;26.40;24.65;;;23.10;99.90;;;;;;4954215;29;20055;-80
2023/10/18 10:23:39;;;;;;;25.73;24.13;;;23.10;99.90;;;;;;4942520;29;20028;-80
2023/10/18 10:26:11;;;;;;;26.55;24.75;;;22.80;99.90;;;;;;4941790;29;20085;-80
2023/10/18 10:29:09;;;;;;;26.38;24.67;;;23.00;99.90;;;;;;4953114;28;20111;-80
2023/10/18 10:31:54;;;;;;;27.00;25.20;;;23.30;99.90;;;;;;4958088;29;20444;-80
2023/10/18 10:34:34;;;;;;;27.35;25.38;;;23.60;99.90;;;;;;4940913;28;20398;-80
2023/10/18 10:37:18;;;;;;;26.45;24.63;;;23.40;99.90;;;;;;4937274;29;20031;-80
2023/10/18 10:40:14;;;;;;;26.13;24.25;;;23.40;99.90;;;;;;4938445;29;20028;-79
2023/10/18 10:42:46;;;;;;;25.73;24.13;;;23.20;99.90;;;;;;4937949;29;20020;-79
2023/10/18 10:45:37;;;;;;;25.83;24.00;;;22.90;99.90;;;;;;4949688;29;20035;-80
2023/10/18 10:48:17;;;;;;;25.73;24.13;;;22.60;99.90;;;;;;4937011;29;20422;-80
2023/10/18 10:50:57;;;;;;;26.05;24.45;;;22.10;99.90;;;;;;4938202;29;20034;-79
2023/10/18 10:53:44;;;;;;;26.17;24.58;;;22.20;99.90;;;;;;4936700;29;20388;-80
2023/10/18 10:56:32;;;;;;;26.35;24.45;;;22.30;99.90;;;;;;4938090;29;20043;-80
2023/10/18 11:01:43;;;;;;;26.08;24.38;;;22.80;99.90;;;;;;4956796;29;20042;-80
2023/10/18 11:04:49;;;;;;;27.08;25.42;;;22.80;99.90;;;;;;4942108;28;20493;-80
2023/10/18 11:07:13;;;;;;;26.48;24.83;;;23.00;99.90;;;;;;4935095;29;20143;-80
2023/10/18 11:09:42;;;;;;;26.13;24.52;;;22.90;99.90;;;;;;4936727;29;20071;-80
2023/10/18 11:12:11;;;;;;;26.02;24.23;;;23.20;99.90;;;;;;4942435;29;20028;-80
2023/10/18 11:14:38;;;;;;;25.15;23.48;;;23.30;99.90;;;;;;4937166;29;20428;-79
2023/10/18 11:19:59;;;;;;;26.20;24.33;;;23.20;99.90;;;;;;4937671;29;20038;-79
2023/10/18 11:22:29;;;;;;;26.38;24.58;;;23.10;99.90;;;;;;4886417;29;20044;-80
2023/10/18 11:24:59;;;;;;;26.05;24.45;;;23.20;99.90;;;;;;4918553;29;20060;-79
2023/10/18 11:27:33;;;;;;;27.00;25.20;;;23.30;99.90;;;;;;4885932;29;20111;-80
2023/10/18 11:30:16;;;;;;;26.02;24.40;;;23.40;99.90;;;;;;4901645;29;20066;-79
2023/10/18 11:32:46;;;;;;;26.52;24.70;;;23.30;99.90;;;;;;4901572;29;20035;-79
2023/10/18 11:35:17;;;;;;;26.75;24.95;;;23.50;99.90;;;;;;4913866;29;20044;-80
2023/10/18 11:37:47;;;;;;;26.08;24.27;;;23.70;99.90;;;;;;4937514;29;20036;-79
2023/10/18 11:40:18;;;;;;;25.80;24.00;;;23.70;99.90;;;;;;4904200;29;20028;-80
2023/10/18 11:43:05;;;;;;;25.70;24.00;;;23.40;99.90;;;;;;4901279;29;20478;-80
2023/10/18 11:45:32;;;;;;;25.88;24.08;;;23.40;99.90;;;;;;4919259;29;20494;-80
2023/10/18 11:48:02;;;;;;;25.08;23.48;;;23.40;99.90;;;;;;4937207;29;20031;-80
2023/10/18 11:50:47;;;;;;;25.23;23.63;;;23.00;99.90;;;;;;4937707;29;20043;-80
2023/10/18 11:53:17;;;;;;;25.58;23.98;;;22.90;99.90;;;;;;4913545;29;20043;-81
2023/10/18 11:56:02;;;;;;;25.38;23.83;;;22.40;99.90;;;;;;4901261;29;20040;-82
2023/10/18 11:58:31;;;;;;;26.48;24.77;;;22.50;99.90;;;;;;4900997;29;20423;-84
2023/10/18 12:01:18;;;;;;;26.15;24.52;;;22.80;99.90;;;;;;4894414;29;20059;-82
2023/10/18 12:03:46;;;;;;;26.45;24.75;;;23.00;99.90;;;;;;4926339;29;20067;-82
2023/10/18 12:06:13;;;;;;;27.80;25.65;;;23.00;99.90;;;;;;4901963;29;20034;-82
2023/10/18 12:11:29;;;;;;;26.83;24.90;;;23.30;99.90;;;;;;4902629;29;20115;-86
2023/10/18 12:14:04;;;;;;;26.38;24.77;;;23.40;99.90;;;;;;4886021;29;20028;-87
2023/10/18 12:16:34;;;;;;;27.05;25.15;;;23.50;99.90;;;;;;4902163;29;20036;-87
2023/10/18 12:19:01;;;;;;;27.88;25.50;;;23.30;99.90;;;;;;4886981;29;20118;-86
2023/10/18 12:21:30;;;;;;;25.67;24.02;;;23.30;99.90;;;;;;4923359;29;20051;-88
2023/10/18 12:23:57;;;;;;;26.05;24.45;;;23.30;99.90;;;;;;4920649;29;20119;-87
2023/10/18 12:26:24;;;;;;;26.40;24.70;;;23.20;99.90;;;;;;4901655;29;20028;-85
2023/10/18 12:28:57;;;;;;;26.33;24.65;;;23.40;99.90;;;;;;4901514;29;20028;-86
2023/10/18 12:31:26;;;;;;;26.23;24.52;;;23.40;99.90;;;;;;4917263;29;20127;-86
2023/10/18 12:33:58;;;;;;;26.42;24.73;;;23.50;99.90;;;;;;4901365;29;20036;-86
2023/10/18 12:36:38;;;;;;;26.48;24.77;;;23.50;99.90;;;;;;4917529;29;20032;-85
2023/10/18 12:39:20;;;;;;;26.60;24.83;;;23.30;99.90;;;;;;4950964;29;20031;-86
2023/10/18 12:41:53;;;;;;;26.02;24.33;;;23.10;99.90;;;;;;4939204;29;20110;-87
2023/10/18 12:44:25;;;;;;;26.83;24.90;;;23.10;99.90;;;;;;4939423;29;20373;-85
2023/10/18 12:46:55;;;;;;;26.35;24.65;;;23.00;99.90;;;;;;4929175;29;20031;-83
2023/10/18 12:49:31;;;;;;;26.00;24.20;;;23.00;99.90;;;;;;4938955;29;20454;-85
2023/10/18 12:52:00;;;;;;;26.50;24.75;;;23.20;99.90;;;;;;4921945;29;20064;-87
2023/10/18 12:54:31;;;;;;;25.95;24.35;;;23.30;99.90;;;;;;4901232;29;20493;-86
2023/10/18 12:57:10;;;;;;;26.35;24.60;;;23.30;99.90;;;;;;4901162;29;20067;-90
2023/10/18 13:00:23;;;;;;;25.85;24.10;;;23.30;99.90;;;;;;4901035;29;20036;-86
2023/10/18 13:05:12;;;;;;;25.83;23.77;;;22.50;99.90;;;;;;4916609;29;20737;-86
2023/10/18 13:07:43;;;;;;;25.90;24.10;;;22.70;99.90;;;;;;4903411;29;20028;-91
2023/10/18 13:10:13;;;;;;;26.08;24.27;;;22.70;99.90;;;;;;4901156;29;20043;-85
2023/10/18 13:13:04;;;;;;;25.83;24.13;;;22.70;99.90;;;;;;4902244;29;20052;-83
2023/10/18 13:15:33;;;;;;;25.92;24.20;;;22.60;99.90;;;;;;4936356;29;20394;-85
2023/10/18 13:18:00;;;;;;;24.98;23.35;;;22.50;99.90;;;;;;4919127;29;20028;-81
2023/10/18 13:20:34;;;;;;;25.52;23.83;;;22.50;99.90;;;;;;4934859;29;20043;-83
2023/10/18 13:23:01;;;;;;;26.00;24.38;;;22.30;99.90;;;;;;4915305;29;20530;-82
2023/10/18 13:26:15;;;;;;;25.65;23.95;;;22.40;99.90;;;;;;4900656;29;20569;-83
2023/10/18 13:28:24;;;;;;;24.88;23.27;;;22.70;99.90;;;;;;4906522;29;20051;-85
2023/10/18 13:30:54;;;;;;;25.75;24.05;;;22.90;99.90;;;;;;4915765;29;20028;-86
2023/10/18 13:33:20;;;;;;;25.05;23.45;;;22.80;99.90;;;;;;4903232;29;20032;-85
2023/10/18 13:35:49;;;;;;;26.60;24.70;;;22.90;99.90;;;;;;4900483;29;20445;-85
2023/10/18 13:38:16;;;;;;;25.95;24.25;;;23.10;99.90;;;;;;4900395;29;20032;-82
2023/10/18 13:40:43;;;;;;;25.58;23.98;;;23.00;99.90;;;;;;4917602;29;20032;-85
2023/10/18 13:43:12;;;;;;;25.27;23.67;;;22.90;99.90;;;;;;4901107;29;20032;-84
2023/10/18 13:45:41;;;;;;;25.30;23.65;;;22.80;99.90;;;;;;4900641;29;20028;-84
2023/10/18 13:48:10;;;;;;;25.15;23.55;;;22.60;99.90;;;;;;4900779;29;20028;-84
2023/10/18 13:50:38;;;;;;;25.65;23.65;;;22.70;99.90;;;;;;4901063;29;20115;-85
2023/10/18 13:53:05;;;;;;;25.13;23.33;;;22.70;99.90;;;;;;4904377;29;20064;-86
2023/10/18 13:55:32;;;;;;;25.27;23.67;;;22.50;99.90;;;;;;4919774;29;20045;-87
2023/10/18 13:57:58;;;;;;;25.00;23.35;;;22.50;99.90;;;;;;4919233;29;20402;-85
2023/10/18 14:00:27;;;;;;;24.67;23.15;;;22.30;99.90;;;;;;4918812;29;20036;-90